createdAt,value
2018-01-22T00:00:45.477Z,3.35
2018-01-22T00:03:13.142Z,2.95
2018-01-22T00:05:40.725Z,4.07
2018-01-22T00:08:08.366Z,3.50
2018-01-22T00:10:36.702Z,4.22
2018-01-22T00:13:04.242Z,4.55
2018-01-22T00:15:31.918Z,4.28
2018-01-22T00:17:59.482Z,4.90
2018-01-22T00:20:27.957Z,5.45
2018-01-22T00:22:55.671Z,4.30
2018-01-22T00:25:24.050Z,6.00
2018-01-22T00:27:52.383Z,6.65
2018-01-22T00:30:20.861Z,6.87
2018-01-22T00:32:49.200Z,6.93
2018-01-22T00:35:17.541Z,7.57
2018-01-22T00:37:45.319Z,7.12
2018-01-22T00:40:13.003Z,7.75
2018-01-22T00:42:40.657Z,8.55
2018-01-22T00:45:09.046Z,8.00
2018-01-22T00:47:36.597Z,8.05
2018-01-22T00:50:04.952Z,9.27
2018-01-22T00:52:32.737Z,10.40
2018-01-22T00:55:00.306Z,10.00
2018-01-22T00:57:27.826Z,10.25
2018-01-22T00:59:55.326Z,11.95
2018-01-22T01:02:22.805Z,11.10
2018-01-22T01:04:50.432Z,10.95
2018-01-22T01:07:18.043Z,12.60
2018-01-22T01:09:45.653Z,12.70
2018-01-22T01:12:14.036Z,12.32
2018-01-22T01:14:41.641Z,11.95
2018-01-22T01:17:09.258Z,13.30
2018-01-22T01:19:36.980Z,13.00
2018-01-22T01:22:04.591Z,12.45
2018-01-22T01:24:32.182Z,14.25
2018-01-22T01:27:00.514Z,13.80
2018-01-22T01:29:28.884Z,12.55
2018-01-22T01:31:57.181Z,13.20
2018-01-22T01:34:25.537Z,14.27
2018-01-22T01:36:53.942Z,12.85
2018-01-22T01:39:21.543Z,12.48
2018-01-22T01:41:49.063Z,13.10
2018-01-22T01:44:17.411Z,11.85
2018-01-22T01:46:45.794Z,10.93
2018-01-22T01:49:14.188Z,12.13
2018-01-22T01:51:41.857Z,9.85
2018-01-22T01:54:09.414Z,10.75
2018-01-22T01:56:36.990Z,9.98
2018-01-22T01:59:04.740Z,11.43
2018-01-22T02:01:32.370Z,10.32
2018-01-22T02:03:59.969Z,10.95
2018-01-22T02:06:27.721Z,11.82
2018-01-22T02:08:55.394Z,11.00
2018-01-22T02:11:23.067Z,12.43
2018-01-22T02:13:50.817Z,11.02
2018-01-22T02:16:18.501Z,11.48
2018-01-22T02:18:46.146Z,11.70
2018-01-22T02:21:14.705Z,10.05
2018-01-22T02:23:42.436Z,10.73
2018-01-22T02:26:10.193Z,11.85
2018-01-22T02:28:37.817Z,11.02
2018-01-22T02:31:05.477Z,11.40
2018-01-22T02:33:33.851Z,11.27
2018-01-22T02:36:01.622Z,11.07
2018-01-22T02:38:29.259Z,10.00
2018-01-22T02:40:56.802Z,9.43
2018-01-22T02:43:24.609Z,10.45
2018-01-22T02:45:52.169Z,10.38
2018-01-22T02:48:19.804Z,10.00
2018-01-22T02:50:47.499Z,10.60
2018-01-22T02:53:15.098Z,11.25
2018-01-22T02:55:42.767Z,10.75
2018-01-22T02:58:10.405Z,12.85
2018-01-22T03:00:38.852Z,11.10
2018-01-22T03:03:06.521Z,12.55
2018-01-22T03:05:34.940Z,11.57
2018-01-22T03:08:02.693Z,13.40
2018-01-22T03:10:30.330Z,13.50
2018-01-22T03:12:57.942Z,13.20
2018-01-22T03:15:25.503Z,12.27
2018-01-22T03:17:53.082Z,13.25
2018-01-22T03:20:20.743Z,11.80
2018-01-22T03:22:48.221Z,12.85
2018-01-22T03:25:15.754Z,13.82
2018-01-22T03:27:43.309Z,13.77
2018-01-22T03:30:10.802Z,12.45
2018-01-22T03:32:38.456Z,13.90
2018-01-22T03:35:06.119Z,14.05
2018-01-22T03:37:33.637Z,14.02
2018-01-22T03:40:01.116Z,14.52
2018-01-22T03:42:28.609Z,15.15
2018-01-22T03:44:56.869Z,15.15
2018-01-22T03:47:25.254Z,15.75
2018-01-22T03:49:52.844Z,15.25
2018-01-22T03:52:20.322Z,15.63
2018-01-22T03:54:47.805Z,17.17
2018-01-22T03:57:15.310Z,17.02
2018-01-22T03:59:42.795Z,17.50
2018-01-22T04:02:10.274Z,17.62
2018-01-22T04:04:37.768Z,17.02
2018-01-22T04:07:06.228Z,19.25
2018-01-22T04:09:33.775Z,18.83
2018-01-22T04:12:01.298Z,19.52
2018-01-22T04:14:28.769Z,18.65
2018-01-22T04:16:56.328Z,18.62
2018-01-22T04:19:23.877Z,19.70
2018-01-22T04:21:51.509Z,19.33
2018-01-22T04:24:19.145Z,20.98
2018-01-22T04:26:47.641Z,20.73
2018-01-22T04:29:15.894Z,19.60
2018-01-22T04:31:43.379Z,18.77
2018-01-22T04:34:11.690Z,19.92
2018-01-22T04:36:39.174Z,19.95
2018-01-22T04:39:06.650Z,22.73
2018-01-22T04:41:34.162Z,22.42
2018-01-22T04:44:01.645Z,23.20
2018-01-22T04:46:29.129Z,20.45
2018-01-22T04:48:56.637Z,22.33
2018-01-22T04:51:24.177Z,20.65
2018-01-22T04:53:51.736Z,19.77
2018-01-22T04:56:19.998Z,21.23
2018-01-22T04:58:48.253Z,20.42
2018-01-22T05:01:15.742Z,20.95
2018-01-22T05:03:44.056Z,25.25
2018-01-22T05:06:11.542Z,22.92
2018-01-22T05:08:39.155Z,20.73
2018-01-22T05:11:07.469Z,21.52
2018-01-22T05:13:34.937Z,20.00
2018-01-22T05:16:02.418Z,22.05
2018-01-22T05:18:30.003Z,22.35
2018-01-22T05:20:57.613Z,20.62
2018-01-22T05:23:25.110Z,21.67
2018-01-22T05:25:53.373Z,21.50
2018-01-22T05:28:21.007Z,23.12
2018-01-22T05:30:48.507Z,21.70
2018-01-22T05:33:16.801Z,21.85
2018-01-22T05:35:44.393Z,20.35
2018-01-22T05:38:11.956Z,21.98
2018-01-22T05:40:39.470Z,23.77
2018-01-22T05:43:06.977Z,21.17
2018-01-22T05:45:34.469Z,22.98
2018-01-22T05:48:02.863Z,21.87
2018-01-22T05:50:30.404Z,21.12
2018-01-22T05:52:58.839Z,21.02
2018-01-22T05:55:27.284Z,22.30
2018-01-22T05:57:55.603Z,20.05
2018-01-22T06:00:23.225Z,20.62
2018-01-22T06:02:51.546Z,19.52
2018-01-22T06:05:19.186Z,19.60
2018-01-22T06:07:46.827Z,19.77
2018-01-22T06:10:15.279Z,18.12
2018-01-22T06:12:43.748Z,19.37
2018-01-22T06:15:11.354Z,18.92
2018-01-22T06:17:38.996Z,19.40
2018-01-22T06:20:07.346Z,19.92
2018-01-22T06:22:34.918Z,18.92
2018-01-22T06:25:02.573Z,18.65
2018-01-22T06:27:30.118Z,17.95
2018-01-22T06:29:57.734Z,16.55
2018-01-22T06:32:25.457Z,17.65
2018-01-22T06:34:53.094Z,15.95
2018-01-22T06:37:20.775Z,18.25
2018-01-22T06:39:48.390Z,17.10
2018-01-22T06:42:16.051Z,17.17
2018-01-22T06:44:43.562Z,17.87
2018-01-22T06:47:12.606Z,18.40
2018-01-22T06:49:40.110Z,16.75
2018-01-22T06:52:07.598Z,16.77
2018-01-22T06:54:35.858Z,17.52
2018-01-22T06:57:03.346Z,17.70
2018-01-22T06:59:31.601Z,17.33
2018-01-22T07:01:59.211Z,17.23
2018-01-22T07:04:26.745Z,17.08
2018-01-22T07:06:55.078Z,16.58
2018-01-22T07:09:22.690Z,15.68
2018-01-22T07:11:50.224Z,15.38
2018-01-22T07:14:18.483Z,17.23
2018-01-22T07:16:46.061Z,16.08
2018-01-22T07:19:14.317Z,17.42
2018-01-22T07:21:41.892Z,17.05
2018-01-22T07:24:09.374Z,14.55
2018-01-22T07:26:37.633Z,16.83
2018-01-22T07:29:05.993Z,15.15
2018-01-22T07:31:33.493Z,16.87
2018-01-22T07:34:01.004Z,15.15
2018-01-22T07:36:28.498Z,16.60
2018-01-22T07:38:56.754Z,17.35
2018-01-22T07:41:24.233Z,16.80
2018-01-22T07:43:52.514Z,17.05
2018-01-22T07:46:20.765Z,18.50
2018-01-22T07:48:48.256Z,17.40
2018-01-22T07:51:16.522Z,18.40
2018-01-22T07:53:45.003Z,18.92
2018-01-22T07:56:13.278Z,18.00
2018-01-22T07:58:41.533Z,18.48
2018-01-22T08:01:09.033Z,18.55
2018-01-22T08:03:36.562Z,18.17
2018-01-22T08:06:04.154Z,20.30
2018-01-22T08:08:31.653Z,19.67
2018-01-22T08:10:59.142Z,21.73
2018-01-22T08:13:27.458Z,21.25
2018-01-22T08:15:54.945Z,22.65
2018-01-22T08:18:22.433Z,22.00
2018-01-22T08:20:50.714Z,19.98
2018-01-22T08:23:19.058Z,20.30
2018-01-22T08:25:46.550Z,19.17
2018-01-22T08:28:14.798Z,19.37
2018-01-22T08:30:42.546Z,19.85
2018-01-22T08:33:10.033Z,20.92
2018-01-22T08:35:37.518Z,23.08
2018-01-22T08:38:05.813Z,22.42
2018-01-22T08:40:33.301Z,21.42
2018-01-22T08:43:00.789Z,21.62
2018-01-22T08:45:28.334Z,21.45
2018-01-22T08:47:55.878Z,19.33
2018-01-22T08:50:23.485Z,22.52
2018-01-22T08:52:50.937Z,19.77
2018-01-22T08:55:19.265Z,23.27
2018-01-22T08:57:46.773Z,22.65
2018-01-22T09:00:15.061Z,21.75
2018-01-22T09:02:43.318Z,21.50
2018-01-22T09:05:10.862Z,21.33
2018-01-22T09:07:38.349Z,19.40
2018-01-22T09:10:06.606Z,20.90
2018-01-22T09:12:34.204Z,21.60
2018-01-22T09:15:01.694Z,22.93
2018-01-22T09:17:29.191Z,20.17
2018-01-22T09:19:56.738Z,18.65
2018-01-22T09:22:24.261Z,19.45
2018-01-22T09:24:51.750Z,19.95
2018-01-22T09:27:19.343Z,19.75
2018-01-22T09:29:47.601Z,19.33
2018-01-22T09:32:15.094Z,19.43
2018-01-22T09:34:42.644Z,19.58
2018-01-22T09:37:10.142Z,17.70
2018-01-22T09:39:37.669Z,16.37
2018-01-22T09:42:05.193Z,16.92
2018-01-22T09:44:32.669Z,18.97
2018-01-22T09:47:00.950Z,18.97
2018-01-22T09:49:29.501Z,15.90
2018-01-22T09:51:57.010Z,16.35
2018-01-22T09:54:24.515Z,16.10
2018-01-22T09:56:52.127Z,18.23
2018-01-22T09:59:19.691Z,16.10
2018-01-22T10:01:47.268Z,15.80
2018-01-22T10:04:14.778Z,15.65
2018-01-22T10:06:42.269Z,15.00
2018-01-22T10:09:09.824Z,16.03
2018-01-22T10:11:37.358Z,15.50
2018-01-22T10:14:04.967Z,15.00
2018-01-22T10:16:32.478Z,13.85
2018-01-22T10:19:00.970Z,13.32
2018-01-22T10:21:29.479Z,12.80
2018-01-22T10:23:57.010Z,13.68
2018-01-22T10:26:25.289Z,13.40
2018-01-22T10:28:53.718Z,14.30
2018-01-22T10:31:21.201Z,12.07
2018-01-22T10:33:48.712Z,11.17
2018-01-22T10:36:16.371Z,11.55
2018-01-22T10:38:43.875Z,12.07
2018-01-22T10:41:11.379Z,10.77
2018-01-22T10:43:38.929Z,11.38
2018-01-22T10:46:07.214Z,10.40
2018-01-22T10:48:35.074Z,10.30
2018-01-22T10:51:03.559Z,9.70
2018-01-22T10:53:31.920Z,10.85
2018-01-22T10:55:59.488Z,11.18
2018-01-22T10:58:27.083Z,12.52
2018-01-22T11:00:54.594Z,11.40
2018-01-22T11:03:22.101Z,11.90
2018-01-22T11:05:49.630Z,11.90
2018-01-22T11:08:17.238Z,12.40
2018-01-22T11:10:44.750Z,14.68
2018-01-22T11:13:13.287Z,15.40
2018-01-22T11:15:46.602Z,16.50
2018-01-22T11:18:14.232Z,19.15
2018-01-22T11:20:41.824Z,17.65
2018-01-22T11:23:09.306Z,19.70
2018-01-22T11:25:36.866Z,18.75
2018-01-22T11:28:05.149Z,20.83
2018-01-22T11:30:33.427Z,21.10
2018-01-22T11:33:01.746Z,20.77
2018-01-22T11:35:29.267Z,19.05
2018-01-22T11:37:56.958Z,19.80
2018-01-22T11:40:24.519Z,18.03
2018-01-22T11:42:52.017Z,17.43
2018-01-22T11:45:19.509Z,17.80
2018-01-22T11:47:47.247Z,17.83
2018-01-22T11:50:14.942Z,18.12
2018-01-22T11:52:42.470Z,16.37
2018-01-22T11:55:09.953Z,14.37
2018-01-22T11:57:37.508Z,13.43
2018-01-22T12:00:05.766Z,13.23
2018-01-22T12:02:33.247Z,13.60
2018-01-22T12:05:01.522Z,14.27
2018-01-22T12:07:29.774Z,14.30
2018-01-22T12:09:57.357Z,15.47
2018-01-22T12:12:25.694Z,16.60
2018-01-22T12:14:54.094Z,15.57
2018-01-22T12:17:21.611Z,15.93
2018-01-22T12:19:49.094Z,14.87
2018-01-22T12:22:16.775Z,17.10
2018-01-22T12:24:44.374Z,15.47
2018-01-22T12:27:12.012Z,14.10
2018-01-22T12:29:39.507Z,13.90
2018-01-22T12:32:07.139Z,14.70
2018-01-22T12:34:35.424Z,12.57
2018-01-22T12:37:02.922Z,12.80
2018-01-22T12:39:30.442Z,11.40
2018-01-22T12:41:58.614Z,10.90
2018-01-22T12:44:27.028Z,10.00
2018-01-22T12:46:54.579Z,10.53
2018-01-22T12:49:22.836Z,9.67
2018-01-22T12:51:50.566Z,9.30
2018-01-22T12:54:18.109Z,8.17
2018-01-22T12:56:45.793Z,9.27
2018-01-22T12:59:14.098Z,7.03
2018-01-22T13:01:42.158Z,6.90
2018-01-22T13:04:10.406Z,7.17
2018-01-22T13:06:37.893Z,7.23
2018-01-22T13:09:06.200Z,5.53
2018-01-22T13:11:35.410Z,6.53
2018-01-22T13:14:02.900Z,6.17
2018-01-22T13:16:30.389Z,6.20
2018-01-22T13:18:57.930Z,6.27
2018-01-22T13:21:25.433Z,5.50
2018-01-22T13:23:52.921Z,5.90
2018-01-22T13:26:20.470Z,5.40
2018-01-22T13:28:47.946Z,5.53
2018-01-22T13:31:15.437Z,4.83
2018-01-22T13:33:43.806Z,5.00
2018-01-22T13:36:12.058Z,5.30
2018-01-22T13:38:41.057Z,4.93
2018-01-22T13:41:12.537Z,5.20
2018-01-22T13:43:40.785Z,4.80
2018-01-22T13:46:08.277Z,6.43
2018-01-22T13:48:35.821Z,6.63
2018-01-22T13:51:03.303Z,5.70
2018-01-22T13:53:30.906Z,6.47
2018-01-22T13:55:58.398Z,5.30
2018-01-22T13:58:25.877Z,4.87
2018-01-22T14:00:53.423Z,5.60
2018-01-22T14:03:21.673Z,4.50
2018-01-22T14:05:49.157Z,4.97
2018-01-22T14:08:17.465Z,4.03
2018-01-22T14:10:44.956Z,4.20
2018-01-22T14:13:12.454Z,3.20
2018-01-22T14:15:40.764Z,3.10
2018-01-22T14:18:08.246Z,3.80
2018-01-22T14:20:35.733Z,2.90
2018-01-22T14:23:03.245Z,3.40
2018-01-22T14:25:30.734Z,4.07
2018-01-22T14:27:58.225Z,3.37
2018-01-22T14:30:25.769Z,4.50
2018-01-22T14:32:53.250Z,3.10
2018-01-22T14:35:21.494Z,4.23
2018-01-22T14:37:49.138Z,4.00
2018-01-22T14:40:17.388Z,3.53
2018-01-22T14:42:44.873Z,3.27
2018-01-22T14:45:12.410Z,4.00
2018-01-22T14:47:39.890Z,4.37
2018-01-22T14:50:07.369Z,4.63
2018-01-22T14:52:34.877Z,4.17
2018-01-22T14:55:02.368Z,3.60
2018-01-22T14:57:29.838Z,2.93
2018-01-22T14:59:57.381Z,4.50
2018-01-22T15:02:24.861Z,3.67
2018-01-22T15:04:52.342Z,3.83
2018-01-22T15:07:20.618Z,3.90
2018-01-22T15:09:48.870Z,4.80
2018-01-22T15:12:16.362Z,3.97
2018-01-22T15:14:44.670Z,4.13
2018-01-22T15:17:12.157Z,4.43
2018-01-22T15:19:39.634Z,4.70
2018-01-22T15:22:07.997Z,4.43
2018-01-22T15:24:35.484Z,4.03
2018-01-22T15:27:03.750Z,4.50
2018-01-22T15:29:31.286Z,4.43
2018-01-22T15:31:58.789Z,4.97
2018-01-22T15:34:26.294Z,4.20
2018-01-22T15:36:53.846Z,4.30
2018-01-22T15:39:21.326Z,5.40
2018-01-22T15:41:48.818Z,3.85
2018-01-22T15:44:16.341Z,3.87
2018-01-22T15:46:43.841Z,4.85
2018-01-22T15:49:11.326Z,4.90
2018-01-22T15:51:38.885Z,5.53
2018-01-22T15:54:06.384Z,3.85
2018-01-22T15:56:33.873Z,4.70
2018-01-22T15:59:01.390Z,3.90
2018-01-22T16:01:28.880Z,4.37
2018-01-22T16:03:57.130Z,3.90
2018-01-22T16:06:24.682Z,4.10
2018-01-22T16:08:52.182Z,4.03
2018-01-22T16:11:19.673Z,4.32
2018-01-22T16:13:47.226Z,3.97
2018-01-22T16:16:14.710Z,4.80
2018-01-22T16:18:42.197Z,4.60
2018-01-22T16:21:09.738Z,4.90
2018-01-22T16:23:37.233Z,4.82
2018-01-22T16:26:05.478Z,5.90
2018-01-22T16:28:32.981Z,4.97
2018-01-22T16:31:00.470Z,4.28
2018-01-22T16:33:27.958Z,4.72
2018-01-22T16:35:55.498Z,5.18
2018-01-22T16:38:22.973Z,4.87
2018-01-22T16:40:51.286Z,4.07
2018-01-22T16:43:18.835Z,4.22
2018-01-22T16:45:47.086Z,5.78
2018-01-22T16:48:14.579Z,5.00
2018-01-22T16:50:42.833Z,4.62
2018-01-22T16:53:10.333Z,5.10
2018-01-22T16:55:37.823Z,5.25
2018-01-22T16:58:05.390Z,4.80
2018-01-22T17:00:32.897Z,4.90
2018-01-22T17:03:00.378Z,5.28
2018-01-22T17:05:28.107Z,4.30
2018-01-22T17:07:56.354Z,4.20
2018-01-22T17:10:23.852Z,5.20
2018-01-22T17:12:51.385Z,4.62
2018-01-22T17:15:18.870Z,4.37
2018-01-22T17:17:46.355Z,4.32
2018-01-22T17:20:13.846Z,4.90
2018-01-22T17:22:41.361Z,5.50
2018-01-22T17:25:08.834Z,5.03
2018-01-22T17:27:36.411Z,5.35
2018-01-22T17:30:04.068Z,5.15
2018-01-22T17:32:31.658Z,5.43
2018-01-22T17:34:59.201Z,6.15
2018-01-22T17:37:26.678Z,5.60
2018-01-22T17:39:54.157Z,5.50
2018-01-22T17:42:22.425Z,5.05
2018-01-22T17:44:50.670Z,4.37
2018-01-22T17:47:18.156Z,5.25
2018-01-22T17:49:46.573Z,5.35
2018-01-22T17:52:14.054Z,5.25
2018-01-22T17:54:41.575Z,5.12
2018-01-22T17:57:09.126Z,5.00
2018-01-22T17:59:37.373Z,6.50
2018-01-22T18:02:04.853Z,5.80
2018-01-22T18:04:33.153Z,7.45
2018-01-22T18:07:00.643Z,5.78
2018-01-22T18:09:28.118Z,7.57
2018-01-22T18:11:56.481Z,5.68
2018-01-22T18:14:23.958Z,6.95
2018-01-22T18:16:51.445Z,5.82
2018-01-22T18:19:19.752Z,5.80
2018-01-22T18:21:47.237Z,6.32
2018-01-22T18:24:15.479Z,6.25
2018-01-22T18:26:42.965Z,6.03
2018-01-22T18:29:10.521Z,5.10
2018-01-22T18:31:38.098Z,5.07
2018-01-22T18:34:05.670Z,5.45
2018-01-22T18:36:33.263Z,7.60
2018-01-22T18:39:01.534Z,6.15
2018-01-22T18:41:29.789Z,6.62
2018-01-22T18:43:57.270Z,5.68
2018-01-22T18:46:25.579Z,6.78
2018-01-22T18:48:53.067Z,6.35
2018-01-22T18:51:20.546Z,7.22
2018-01-22T18:53:48.078Z,6.28
2018-01-22T18:56:15.552Z,6.12
2018-01-22T18:58:43.072Z,6.95
2018-01-22T19:01:10.649Z,6.68
2018-01-22T19:03:38.217Z,7.10
2018-01-22T19:06:05.701Z,6.47
2018-01-22T19:08:33.190Z,8.20
2018-01-22T19:11:06.598Z,7.43
2018-01-22T19:13:34.094Z,8.70
2018-01-22T19:16:01.574Z,9.15
2018-01-22T19:18:29.121Z,6.93
2018-01-22T19:20:57.165Z,6.45
2018-01-22T19:23:24.646Z,7.32
2018-01-22T19:25:52.234Z,8.10
2018-01-22T19:28:20.517Z,7.25
2018-01-22T19:30:48.777Z,7.70
2018-01-22T19:33:16.275Z,7.85
2018-01-22T19:35:43.841Z,7.22
2018-01-22T19:38:11.321Z,6.35
2018-01-22T19:40:38.862Z,7.12
2018-01-22T19:43:06.449Z,6.70
2018-01-22T19:45:34.943Z,6.82
2018-01-22T19:48:02.637Z,7.55
2018-01-22T19:50:30.193Z,6.80
2018-01-22T19:52:57.790Z,7.93
2018-01-22T19:55:25.386Z,8.13
2018-01-22T19:57:52.858Z,8.45
2018-01-22T20:00:20.362Z,8.40
2018-01-22T20:02:49.054Z,6.10
2018-01-22T20:05:16.577Z,6.47
2018-01-22T20:07:44.852Z,6.75
2018-01-22T20:10:12.418Z,7.12
2018-01-22T20:12:39.948Z,7.50
2018-01-22T20:15:08.307Z,7.05
2018-01-22T20:17:35.799Z,7.45
2018-01-22T20:20:03.503Z,7.47
2018-01-22T20:22:31.213Z,6.53
2018-01-22T20:24:58.710Z,7.25
2018-01-22T20:27:26.211Z,8.02
2018-01-22T20:29:53.797Z,7.18
2018-01-22T20:32:21.438Z,6.75
2018-01-22T20:34:49.068Z,6.82
2018-01-22T20:37:16.647Z,6.82
2018-01-22T20:39:44.129Z,7.37
2018-01-22T20:42:11.635Z,6.75
2018-01-22T20:44:39.158Z,6.03
2018-01-22T20:47:06.642Z,6.60
2018-01-22T20:49:34.143Z,7.28
2018-01-22T20:52:01.689Z,7.10
2018-01-22T20:54:29.173Z,6.90
2018-01-22T20:56:56.675Z,7.95
2018-01-22T20:59:24.224Z,6.65
2018-01-22T21:01:52.474Z,7.62
2018-01-22T21:04:19.961Z,8.45
2018-01-22T21:06:48.226Z,7.62
2018-01-22T21:09:16.474Z,7.70
2018-01-22T21:11:43.961Z,7.15
2018-01-22T21:14:12.248Z,7.60
2018-01-22T21:16:40.576Z,6.70
2018-01-22T21:19:08.091Z,6.68
2018-01-22T21:21:36.498Z,6.15
2018-01-22T21:24:04.002Z,7.37
2018-01-22T21:26:33.275Z,8.75
2018-01-22T21:29:12.181Z,8.30
2018-01-22T21:31:39.856Z,7.72
2018-01-22T21:34:08.958Z,8.18
2018-01-22T21:36:39.135Z,7.28
2018-01-22T21:39:08.372Z,8.13
2018-01-22T21:41:39.973Z,8.05
2018-01-22T21:44:15.881Z,7.55
2018-01-22T21:46:54.338Z,8.18
2018-01-22T21:49:33.609Z,7.75
2018-01-22T21:52:22.897Z,6.85
2018-01-22T21:54:55.220Z,8.05
2018-01-22T21:57:41.889Z,6.62
2018-01-22T22:00:15.954Z,6.85
2018-01-22T22:02:45.848Z,6.90
2018-01-22T22:05:20.762Z,7.20
2018-01-22T22:07:55.293Z,6.95
2018-01-22T22:10:25.176Z,8.32
2018-01-22T22:12:58.117Z,8.35
2018-01-22T22:15:29.296Z,7.82
2018-01-22T22:18:04.716Z,7.15
2018-01-22T22:20:35.966Z,6.57
2018-01-22T22:23:08.678Z,7.53
2018-01-22T22:25:46.045Z,6.62
2018-01-22T22:28:14.841Z,7.60
2018-01-22T22:30:42.487Z,7.18
2018-01-22T22:33:10.088Z,7.75
2018-01-22T22:35:37.814Z,8.30
2018-01-22T22:38:05.305Z,8.63
2018-01-22T22:40:32.782Z,7.62
2018-01-22T22:43:00.423Z,9.02
2018-01-22T22:45:28.054Z,8.10
2018-01-22T22:47:55.753Z,7.45
2018-01-22T22:50:24.232Z,8.40
2018-01-22T22:52:52.630Z,9.80
2018-01-22T22:55:20.358Z,7.45
2018-01-22T22:57:48.163Z,9.13
2018-01-22T23:00:16.548Z,6.87
2018-01-22T23:02:44.371Z,8.10
2018-01-22T23:05:12.021Z,7.22
2018-01-22T23:07:39.653Z,8.00
2018-01-22T23:10:07.260Z,7.62
2018-01-22T23:12:35.639Z,8.55
2018-01-22T23:15:03.202Z,8.88
2018-01-22T23:17:30.852Z,7.95
2018-01-22T23:19:58.467Z,7.45
2018-01-22T23:22:26.784Z,8.30
2018-01-22T23:24:54.413Z,8.02
2018-01-22T23:27:22.078Z,6.90
2018-01-22T23:29:50.607Z,8.23
2018-01-22T23:35:11.720Z,7.47
2018-01-22T23:37:48.364Z,10.00
2018-01-22T23:40:16.938Z,8.82
2018-01-22T23:42:44.653Z,7.32
2018-01-22T23:45:12.175Z,7.43
2018-01-22T23:47:39.694Z,8.07
2018-01-22T23:50:07.246Z,7.18
2018-01-22T23:52:34.859Z,8.15
2018-01-22T23:55:02.377Z,7.70
2018-01-22T23:57:30.951Z,7.45
2018-01-22T23:59:58.763Z,7.90
